createdAt,value
2018-12-26T00:00:37.377Z,1.70
2018-12-26T00:03:18.089Z,1.70
2018-12-26T00:05:58.669Z,1.70
2018-12-26T00:08:39.277Z,1.80
2018-12-26T00:11:19.695Z,1.80
2018-12-26T00:14:00.630Z,1.80
2018-12-26T00:16:41.658Z,1.70
2018-12-26T00:19:22.474Z,1.80
2018-12-26T00:22:03.058Z,1.40
2018-12-26T00:24:43.877Z,1.60
2018-12-26T00:27:24.594Z,1.60
2018-12-26T00:30:05.330Z,1.60
2018-12-26T00:32:46.130Z,1.60
2018-12-26T00:35:27.078Z,1.50
2018-12-26T00:38:07.722Z,1.30
2018-12-26T00:40:48.453Z,1.20
2018-12-26T00:43:29.601Z,1.30
2018-12-26T00:46:10.505Z,1.30
2018-12-26T00:48:51.615Z,1.30
2018-12-26T00:51:32.378Z,1.30
2018-12-26T00:54:13.470Z,1.30
2018-12-26T00:56:54.472Z,1.30
2018-12-26T00:59:35.163Z,1.10
2018-12-26T01:02:16.110Z,1.10
2018-12-26T01:04:56.881Z,1.00
2018-12-26T01:07:37.490Z,1.10
2018-12-26T01:10:18.478Z,1.10
2018-12-26T01:12:59.138Z,0.90
2018-12-26T01:15:39.626Z,1.10
2018-12-26T01:18:20.098Z,1.10
2018-12-26T01:21:01.158Z,1.20
2018-12-26T01:23:41.806Z,1.20
2018-12-26T01:26:23.051Z,1.20
2018-12-26T01:29:03.861Z,1.20
2018-12-26T01:31:44.765Z,1.20
2018-12-26T01:34:25.194Z,1.10
2018-12-26T01:37:06.051Z,1.10
2018-12-26T01:39:46.970Z,1.00
2018-12-26T01:42:27.859Z,0.90
2018-12-26T01:45:08.422Z,1.00
2018-12-26T01:47:49.026Z,1.00
2018-12-26T01:50:30.102Z,1.00
2018-12-26T01:53:10.654Z,1.00
2018-12-26T01:55:51.435Z,1.00
2018-12-26T01:58:32.236Z,1.00
2018-12-26T02:01:13.037Z,1.00
2018-12-26T02:03:53.662Z,1.10
2018-12-26T02:06:34.623Z,1.10
2018-12-26T02:09:15.198Z,1.00
2018-12-26T02:11:55.878Z,1.10
2018-12-26T02:14:36.854Z,1.00
2018-12-26T02:17:17.406Z,0.90
2018-12-26T02:19:57.970Z,0.90
2018-12-26T02:22:38.654Z,0.90
2018-12-26T02:25:19.528Z,1.00
2018-12-26T02:28:00.840Z,0.90
2018-12-26T02:30:41.540Z,0.90
2018-12-26T02:33:22.465Z,0.80
2018-12-26T02:36:03.644Z,0.70
2018-12-26T02:38:44.606Z,0.60
2018-12-26T02:41:25.296Z,0.70
2018-12-26T02:44:05.848Z,0.70
2018-12-26T02:46:46.427Z,0.70
2018-12-26T02:49:27.331Z,0.80
2018-12-26T02:52:08.086Z,0.80
2018-12-26T02:54:48.673Z,0.80
2018-12-26T02:57:29.231Z,0.90
2018-12-26T03:00:09.609Z,0.90
2018-12-26T03:02:50.410Z,0.80
2018-12-26T03:05:31.194Z,0.70
2018-12-26T03:08:12.051Z,0.60
2018-12-26T03:10:52.469Z,0.50
2018-12-26T03:13:33.270Z,0.50
2018-12-26T03:16:13.910Z,0.50
2018-12-26T03:18:54.494Z,0.50
2018-12-26T03:21:35.454Z,0.60
2018-12-26T03:24:16.391Z,0.60
2018-12-26T03:26:57.350Z,0.60
2018-12-26T03:29:38.025Z,0.50
2018-12-26T03:32:19.062Z,0.40
2018-12-26T03:35:00.235Z,0.40
2018-12-26T03:37:40.975Z,0.30
2018-12-26T03:40:22.006Z,0.30
2018-12-26T03:43:02.563Z,0.40
2018-12-26T03:45:42.347Z,0.30
2018-12-26T03:48:50.854Z,0.20
2018-12-26T03:51:38.897Z,0.30
2018-12-26T03:54:26.938Z,0.20
2018-12-26T03:57:14.717Z,0.00
2018-12-26T04:00:02.814Z,-0.10
2018-12-26T04:02:50.872Z,-0.20
2018-12-26T04:05:38.902Z,-0.20
2018-12-26T04:08:26.938Z,-0.10
2018-12-26T04:11:14.984Z,0.00
2018-12-26T04:14:02.767Z,-0.10
2018-12-26T04:16:50.545Z,-0.30
2018-12-26T04:19:38.403Z,-0.50
2018-12-26T04:22:26.514Z,-0.50
2018-12-26T04:25:14.277Z,-0.60
2018-12-26T04:28:02.062Z,-0.60
2018-12-26T04:30:51.541Z,-0.40
2018-12-26T04:33:39.327Z,-0.40
2018-12-26T04:36:27.090Z,-0.20
2018-12-26T04:39:14.874Z,-0.40
2018-12-26T04:42:02.920Z,-0.60
2018-12-26T04:44:50.721Z,-0.70
2018-12-26T04:47:38.882Z,-0.70
2018-12-26T04:50:26.646Z,-0.70
2018-12-26T04:53:14.433Z,-0.80
2018-12-26T04:56:02.210Z,-0.90
2018-12-26T04:58:50.268Z,-0.70
2018-12-26T05:01:38.035Z,-0.70
2018-12-26T05:04:26.197Z,-0.90
2018-12-26T05:07:14.238Z,-0.20
2018-12-26T05:10:02.029Z,-0.70
2018-12-26T05:12:49.816Z,-0.50
2018-12-26T05:15:39.306Z,-0.60
2018-12-26T05:18:27.081Z,-0.70
2018-12-26T05:21:14.859Z,-0.80
2018-12-26T05:24:02.638Z,-0.90
2018-12-26T05:26:50.834Z,-0.90
2018-12-26T05:29:38.978Z,-2.30
2018-12-26T05:32:27.118Z,-1.00
2018-12-26T05:35:15.261Z,-1.20
2018-12-26T05:38:03.037Z,-1.30
2018-12-26T05:40:51.135Z,-1.30
2018-12-26T05:43:39.278Z,-1.30
2018-12-26T05:46:20.121Z,-1.30
2018-12-26T05:49:01.058Z,-1.40
2018-12-26T05:51:42.125Z,-1.40
2018-12-26T05:54:23.202Z,-1.30
2018-12-26T05:57:03.849Z,-1.20
2018-12-26T05:59:44.621Z,-1.20
2018-12-26T06:02:25.197Z,-1.20
2018-12-26T06:05:06.229Z,-1.20
2018-12-26T06:07:47.238Z,-1.20
2018-12-26T06:10:31.197Z,-1.10
2018-12-26T06:13:11.425Z,-1.30
2018-12-26T06:15:52.259Z,-1.40
2018-12-26T06:18:32.846Z,-1.40
2018-12-26T06:21:13.182Z,-1.40
2018-12-26T06:23:54.081Z,-1.40
2018-12-26T06:26:34.862Z,-1.40
2018-12-26T06:29:15.878Z,-1.30
2018-12-26T06:31:56.686Z,-1.30
2018-12-26T06:34:37.205Z,-1.40
2018-12-26T06:37:17.721Z,-1.30
2018-12-26T06:39:58.538Z,-1.30
2018-12-26T06:42:39.566Z,-1.20
2018-12-26T06:45:20.327Z,-1.30
2018-12-26T06:48:01.129Z,-1.30
2018-12-26T06:50:41.823Z,-1.30
2018-12-26T06:53:22.513Z,-1.20
2018-12-26T06:56:03.386Z,-1.30
2018-12-26T06:58:44.027Z,-1.40
2018-12-26T07:01:24.697Z,-1.50
2018-12-26T07:04:05.186Z,-1.30
2018-12-26T07:06:46.051Z,-1.30
2018-12-26T07:09:26.439Z,-1.30
2018-12-26T07:12:07.394Z,-1.30
2018-12-26T07:14:48.050Z,-1.40
2018-12-26T07:17:28.882Z,-1.50
2018-12-26T07:20:09.817Z,-1.50
2018-12-26T07:22:50.567Z,-1.50
2018-12-26T07:25:31.344Z,-1.40
2018-12-26T07:28:12.078Z,-1.40
2018-12-26T07:30:52.945Z,-1.50
2018-12-26T07:33:33.154Z,-1.40
2018-12-26T07:36:14.078Z,-1.40
2018-12-26T07:38:55.138Z,-1.50
2018-12-26T07:41:35.688Z,-1.50
2018-12-26T07:44:16.794Z,-1.50
2018-12-26T07:46:57.778Z,-2.70
2018-12-26T07:49:38.401Z,-1.40
2018-12-26T07:52:18.826Z,-1.50
2018-12-26T07:54:59.899Z,-1.30
2018-12-26T07:57:40.522Z,-1.30
2018-12-26T08:00:20.965Z,-1.40
2018-12-26T08:03:02.179Z,-1.40
2018-12-26T08:05:43.313Z,-1.90
2018-12-26T08:08:24.094Z,-1.20
2018-12-26T08:11:03.068Z,-1.20
2018-12-26T08:13:51.178Z,-1.20
2018-12-26T08:16:38.957Z,-1.20
2018-12-26T08:19:26.728Z,-1.20
2018-12-26T08:22:14.517Z,-1.10
2018-12-26T08:25:02.295Z,-1.00
2018-12-26T08:27:50.075Z,-1.10
2018-12-26T08:30:37.829Z,-1.00
2018-12-26T08:33:25.633Z,-0.90
2018-12-26T08:36:13.769Z,-0.90
2018-12-26T08:39:01.530Z,-0.70
2018-12-26T08:41:42.206Z,-0.60
2018-12-26T08:44:22.763Z,-0.60
2018-12-26T08:47:04.142Z,-0.50
2018-12-26T08:49:44.866Z,-0.50
2018-12-26T08:52:25.337Z,-0.30
2018-12-26T08:55:06.262Z,0.30
2018-12-26T08:57:47.242Z,0.30
2018-12-26T09:00:28.042Z,0.40
2018-12-26T09:03:08.870Z,0.40
2018-12-26T09:05:50.255Z,0.50
2018-12-26T09:08:30.832Z,0.40
2018-12-26T09:11:11.175Z,0.60
2018-12-26T09:13:51.926Z,0.50
2018-12-26T09:16:33.106Z,0.70
2018-12-26T09:19:13.725Z,0.80
2018-12-26T09:21:54.545Z,0.70
2018-12-26T09:24:35.673Z,0.80
2018-12-26T09:27:16.166Z,0.70
2018-12-26T09:29:57.109Z,0.70
2018-12-26T09:32:37.980Z,0.80
2018-12-26T09:35:20.898Z,0.90
2018-12-26T09:38:01.770Z,1.00
2018-12-26T09:40:42.859Z,-0.60
2018-12-26T09:43:23.490Z,1.00
2018-12-26T09:48:30.322Z,1.10
2018-12-26T09:51:10.958Z,1.30
2018-12-26T09:53:52.422Z,1.40
2018-12-26T09:56:33.023Z,0.70
2018-12-26T09:59:13.606Z,1.40
2018-12-26T10:01:54.421Z,1.50
2018-12-26T10:04:34.928Z,1.50
2018-12-26T10:07:18.925Z,1.50
2018-12-26T10:09:59.767Z,1.60
2018-12-26T10:12:40.547Z,1.70
2018-12-26T10:15:21.378Z,1.60
2018-12-26T10:18:01.908Z,1.50
2018-12-26T10:20:42.830Z,1.80
2018-12-26T10:23:24.113Z,1.90
2018-12-26T10:26:04.622Z,2.00
2018-12-26T10:28:45.295Z,2.10
2018-12-26T10:31:26.689Z,2.20
2018-12-26T10:34:07.499Z,2.40
2018-12-26T10:36:48.178Z,2.60
2018-12-26T10:39:29.206Z,2.80
2018-12-26T10:42:09.634Z,2.90
2018-12-26T10:44:48.378Z,2.90
2018-12-26T10:47:36.486Z,3.00
2018-12-26T10:50:24.263Z,2.30
2018-12-26T10:53:12.358Z,3.10
2018-12-26T10:56:00.117Z,1.90
2018-12-26T10:58:47.897Z,3.10
2018-12-26T11:01:35.657Z,3.10
2018-12-26T11:04:23.719Z,3.20
2018-12-26T11:07:11.734Z,3.30
2018-12-26T11:09:59.779Z,3.30
2018-12-26T11:12:47.544Z,3.30
2018-12-26T11:15:35.322Z,3.40
2018-12-26T11:18:23.398Z,3.30
2018-12-26T11:21:11.430Z,3.40
2018-12-26T11:23:59.207Z,3.80
2018-12-26T11:26:47.204Z,4.10
2018-12-26T11:29:35.254Z,4.10
2018-12-26T11:32:23.028Z,4.10
2018-12-26T11:35:10.867Z,4.10
2018-12-26T11:37:58.625Z,4.30
2018-12-26T11:40:39.334Z,4.40
2018-12-26T11:43:20.336Z,4.50
2018-12-26T11:46:01.078Z,4.60
2018-12-26T11:48:42.024Z,4.60
2018-12-26T11:51:22.930Z,5.00
2018-12-26T11:54:03.843Z,5.00
2018-12-26T11:56:44.671Z,4.90
2018-12-26T11:59:27.302Z,5.00
2018-12-26T12:02:08.154Z,5.00
2018-12-26T12:04:49.074Z,4.90
2018-12-26T12:07:29.402Z,4.90
2018-12-26T12:10:13.317Z,4.90
2018-12-26T12:12:54.547Z,4.90
2018-12-26T12:15:35.207Z,4.90
2018-12-26T12:18:15.510Z,5.00
2018-12-26T12:20:56.402Z,4.90
2018-12-26T12:23:37.057Z,5.00
2018-12-26T12:26:18.110Z,5.10
2018-12-26T12:28:58.902Z,5.30
2018-12-26T12:31:39.914Z,5.70
2018-12-26T12:34:20.413Z,5.80
2018-12-26T12:37:01.070Z,6.20
2018-12-26T12:39:41.737Z,6.10
2018-12-26T12:42:22.838Z,6.00
2018-12-26T12:45:03.939Z,6.00
2018-12-26T12:47:44.361Z,6.20
2018-12-26T12:50:24.722Z,6.10
2018-12-26T12:53:05.593Z,6.30
2018-12-26T12:55:46.502Z,6.50
2018-12-26T12:58:26.970Z,6.40
2018-12-26T13:01:07.849Z,6.10
2018-12-26T13:03:48.445Z,5.90
2018-12-26T13:06:29.259Z,5.90
2018-12-26T13:09:10.011Z,6.10
2018-12-26T13:11:50.643Z,6.00
2018-12-26T13:14:31.197Z,5.90
2018-12-26T13:17:12.122Z,5.50
2018-12-26T13:19:52.775Z,5.50
2018-12-26T13:22:33.653Z,5.60
2018-12-26T13:25:14.123Z,5.70
2018-12-26T13:27:52.829Z,5.90
2018-12-26T13:30:40.594Z,5.50
2018-12-26T13:36:29.629Z,5.00
2018-12-26T13:39:10.366Z,4.80
2018-12-26T13:41:51.510Z,4.60
2018-12-26T13:44:32.821Z,4.60
2018-12-26T13:47:13.374Z,4.40
2018-12-26T13:49:54.302Z,4.30
2018-12-26T13:52:34.873Z,4.30
2018-12-26T13:55:16.127Z,4.10
2018-12-26T13:57:56.737Z,4.30
2018-12-26T14:00:37.350Z,4.50
2018-12-26T14:03:18.114Z,4.50
2018-12-26T14:05:58.810Z,4.40
2018-12-26T14:08:39.286Z,4.30
2018-12-26T14:11:19.574Z,4.20
2018-12-26T14:14:00.310Z,4.00
2018-12-26T14:16:41.042Z,4.00
2018-12-26T14:19:21.593Z,3.90
2018-12-26T14:22:02.693Z,3.80
2018-12-26T14:24:43.540Z,3.80
2018-12-26T14:27:29.268Z,3.60
2018-12-26T14:30:11.135Z,3.60
2018-12-26T14:32:47.276Z,3.60
2018-12-26T14:35:35.038Z,3.60
2018-12-26T14:38:15.630Z,3.60
2018-12-26T14:40:56.797Z,3.50
2018-12-26T14:43:37.491Z,3.60
2018-12-26T14:46:18.271Z,3.40
2018-12-26T14:48:59.338Z,3.50
2018-12-26T14:51:40.703Z,3.40
2018-12-26T14:54:22.031Z,3.40
2018-12-26T14:57:02.457Z,3.40
2018-12-26T14:59:43.433Z,3.40
2018-12-26T15:02:24.390Z,3.40
2018-12-26T15:05:05.085Z,3.20
2018-12-26T15:07:46.004Z,3.20
2018-12-26T15:10:27.114Z,3.20
2018-12-26T15:13:07.890Z,3.10
2018-12-26T15:15:48.153Z,3.00
2018-12-26T15:18:28.614Z,2.90
2018-12-26T15:21:09.666Z,3.00
2018-12-26T15:23:50.625Z,3.00
2018-12-26T15:26:31.653Z,3.10
2018-12-26T15:29:13.188Z,3.20
2018-12-26T15:31:54.414Z,3.20
2018-12-26T15:34:35.514Z,3.20
2018-12-26T15:37:16.446Z,3.20
2018-12-26T15:39:57.185Z,3.20
2018-12-26T15:42:37.605Z,3.10
2018-12-26T15:45:18.154Z,3.10
2018-12-26T15:47:59.214Z,3.00
2018-12-26T15:50:39.462Z,2.90
2018-12-26T15:53:20.025Z,3.00
2018-12-26T15:56:00.890Z,2.90
2018-12-26T15:58:41.745Z,2.90
2018-12-26T16:01:22.362Z,2.90
2018-12-26T16:04:03.065Z,3.00
2018-12-26T16:06:43.814Z,2.90
2018-12-26T16:09:24.947Z,3.00
2018-12-26T16:12:06.039Z,2.90
2018-12-26T16:14:47.054Z,2.80
2018-12-26T16:17:27.943Z,2.60
2018-12-26T16:20:08.530Z,2.50
2018-12-26T16:22:49.764Z,2.40
2018-12-26T16:25:30.366Z,2.40
2018-12-26T16:28:11.822Z,2.30
2018-12-26T16:30:52.274Z,2.30
2018-12-26T16:33:32.833Z,2.30
2018-12-26T16:36:13.218Z,2.30
2018-12-26T16:38:54.477Z,2.30
2018-12-26T16:41:35.534Z,2.30
2018-12-26T16:44:16.160Z,2.30
2018-12-26T16:46:56.993Z,2.30
2018-12-26T16:49:37.642Z,2.20
2018-12-26T16:52:18.431Z,2.10
2018-12-26T16:54:59.070Z,2.10
2018-12-26T16:57:39.747Z,2.10
2018-12-26T17:00:20.502Z,2.00
2018-12-26T17:03:01.358Z,1.90
2018-12-26T17:05:41.950Z,2.20
2018-12-26T17:08:22.918Z,1.80
2018-12-26T17:11:03.955Z,1.80
2018-12-26T17:13:44.544Z,0.10
2018-12-26T17:16:25.598Z,1.80
2018-12-26T17:19:06.211Z,1.80
2018-12-26T17:21:47.519Z,1.80
2018-12-26T17:24:28.181Z,1.80
2018-12-26T17:27:08.646Z,1.90
2018-12-26T17:29:49.579Z,1.90
2018-12-26T17:32:30.245Z,1.90
2018-12-26T17:35:11.102Z,1.80
2018-12-26T17:37:51.766Z,1.80
2018-12-26T17:40:32.207Z,1.80
2018-12-26T17:43:13.513Z,1.80
2018-12-26T17:45:53.750Z,1.80
2018-12-26T17:48:32.430Z,1.80
2018-12-26T17:51:20.214Z,1.90
2018-12-26T17:54:28.745Z,1.90
2018-12-26T17:57:16.753Z,1.90
2018-12-26T18:00:25.284Z,2.00
2018-12-26T18:03:13.066Z,2.00
2018-12-26T18:06:01.157Z,2.10
2018-12-26T18:08:48.937Z,2.10
2018-12-26T18:11:37.147Z,2.10
2018-12-26T18:14:25.197Z,2.20
2018-12-26T18:17:13.111Z,2.20
2018-12-26T18:20:00.887Z,2.20
2018-12-26T18:22:49.007Z,2.10
2018-12-26T18:25:37.158Z,2.00
2018-12-26T18:28:25.269Z,2.20
2018-12-26T18:31:21.815Z,2.20
2018-12-26T18:34:02.833Z,2.30
2018-12-26T18:36:43.366Z,2.10
2018-12-26T18:39:23.680Z,2.10
2018-12-26T18:42:04.578Z,2.10
2018-12-26T18:44:45.714Z,2.00
2018-12-26T18:47:25.977Z,2.10
2018-12-26T18:50:07.369Z,2.10
2018-12-26T18:52:48.042Z,2.20
2018-12-26T18:55:28.732Z,2.10
2018-12-26T18:58:09.603Z,2.20
2018-12-26T19:00:53.185Z,2.60
2018-12-26T19:03:34.174Z,2.70
2018-12-26T19:06:15.318Z,2.50
2018-12-26T19:08:56.097Z,2.40
2018-12-26T19:11:37.250Z,2.30
2018-12-26T19:14:18.334Z,2.20
2018-12-26T19:16:59.671Z,2.10
2018-12-26T19:19:41.098Z,2.00
2018-12-26T19:22:21.706Z,1.90
2018-12-26T19:25:02.908Z,1.90
2018-12-26T19:27:44.005Z,1.90
2018-12-26T19:30:24.519Z,2.00
2018-12-26T19:33:05.583Z,2.10
2018-12-26T19:35:46.293Z,2.10
2018-12-26T19:38:27.003Z,2.10
2018-12-26T19:41:08.035Z,2.10
2018-12-26T19:43:48.713Z,2.00
2018-12-26T19:46:29.969Z,1.90
2018-12-26T19:49:10.668Z,1.90
2018-12-26T19:51:51.791Z,1.90
2018-12-26T19:54:32.775Z,1.90
2018-12-26T19:57:13.348Z,1.80
2018-12-26T19:59:54.466Z,1.80
2018-12-26T20:02:34.894Z,1.80
2018-12-26T20:05:16.018Z,1.90
2018-12-26T20:07:57.130Z,1.90
2018-12-26T20:10:38.198Z,1.90
2018-12-26T20:13:18.634Z,1.90
2018-12-26T20:15:59.358Z,1.90
2018-12-26T20:18:40.242Z,1.90
2018-12-26T20:21:20.935Z,1.90
2018-12-26T20:24:02.104Z,1.80
2018-12-26T20:26:42.842Z,1.80
2018-12-26T20:29:23.414Z,1.80
2018-12-26T20:32:04.531Z,1.80
2018-12-26T20:34:44.946Z,1.90
2018-12-26T20:37:25.939Z,1.90
2018-12-26T20:40:07.132Z,1.90
2018-12-26T20:42:48.530Z,1.80
2018-12-26T20:45:29.058Z,1.80
2018-12-26T20:48:10.402Z,1.90
2018-12-26T20:50:51.398Z,1.80
2018-12-26T20:53:32.146Z,1.90
2018-12-26T20:56:13.497Z,1.00
2018-12-26T20:58:54.520Z,1.80
2018-12-26T21:01:35.041Z,1.80
2018-12-26T21:04:16.039Z,1.80
2018-12-26T21:06:56.422Z,1.90
2018-12-26T21:09:37.346Z,1.90
2018-12-26T21:12:18.510Z,1.80
2018-12-26T21:15:00.091Z,1.90
2018-12-26T21:17:41.086Z,1.90
2018-12-26T21:20:21.699Z,1.90
2018-12-26T21:23:02.465Z,1.90
2018-12-26T21:25:43.085Z,2.00
2018-12-26T21:28:23.470Z,1.90
2018-12-26T21:31:04.694Z,1.90
2018-12-26T21:33:45.321Z,1.90
2018-12-26T21:36:26.006Z,1.90
2018-12-26T21:39:06.754Z,1.90
2018-12-26T21:41:47.242Z,1.90
2018-12-26T21:44:28.058Z,1.90
2018-12-26T21:47:08.854Z,1.90
2018-12-26T21:49:49.470Z,1.90
2018-12-26T21:52:29.895Z,1.90
2018-12-26T21:55:10.725Z,1.80
2018-12-26T21:57:51.914Z,1.90
2018-12-26T22:00:32.418Z,1.90
2018-12-26T22:03:13.494Z,1.90
2018-12-26T22:05:54.322Z,1.90
2018-12-26T22:08:35.218Z,1.90
2018-12-26T22:11:15.881Z,2.00
2018-12-26T22:13:56.509Z,1.90
2018-12-26T22:16:37.137Z,1.90
2018-12-26T22:19:17.538Z,1.90
2018-12-26T22:21:58.474Z,1.90
2018-12-26T22:24:39.096Z,2.00
2018-12-26T22:27:20.007Z,2.00
2018-12-26T22:30:00.666Z,2.00
2018-12-26T22:32:41.428Z,2.00
2018-12-26T22:35:22.255Z,2.00
2018-12-26T22:38:03.140Z,2.10
2018-12-26T22:40:44.486Z,2.00
2018-12-26T22:43:24.950Z,1.90
2018-12-26T22:46:05.805Z,2.00
2018-12-26T22:48:46.806Z,2.00
2018-12-26T22:51:27.507Z,2.00
2018-12-26T22:54:08.746Z,2.00
2018-12-26T22:56:49.829Z,2.00
2018-12-26T22:59:30.510Z,2.10
2018-12-26T23:02:12.597Z,2.00
2018-12-26T23:04:53.014Z,2.00
2018-12-26T23:07:34.017Z,2.00
2018-12-26T23:10:14.855Z,2.00
2018-12-26T23:12:58.601Z,1.90
2018-12-26T23:15:39.526Z,2.00
2018-12-26T23:18:20.738Z,2.00
2018-12-26T23:21:01.186Z,1.90
2018-12-26T23:23:41.835Z,2.00
2018-12-26T23:26:22.321Z,2.00
2018-12-26T23:29:03.098Z,1.90
2018-12-26T23:31:43.606Z,2.00
2018-12-26T23:34:22.290Z,2.00
2018-12-26T23:37:03.632Z,1.90
2018-12-26T23:39:44.195Z,2.00
2018-12-26T23:42:24.750Z,1.90
2018-12-26T23:45:05.595Z,2.00
2018-12-26T23:47:46.366Z,1.90
2018-12-26T23:50:27.552Z,1.90
2018-12-26T23:53:08.314Z,2.00
2018-12-26T23:55:49.310Z,1.90
2018-12-26T23:58:30.503Z,1.90
